CDT,Max TemperatureF,Mean TemperatureF,Min TemperatureF,Max Dew PointF,MeanDew PointF,Min DewpointF,Max Humidity, Mean Humidity, Min Humidity, Max Sea Level PressureIn, Mean Sea Level PressureIn, Min Sea Level PressureIn, Max VisibilityMiles, Mean VisibilityMiles, Min VisibilityMiles, Max Wind SpeedMPH, Mean Wind SpeedMPH, Max Gust SpeedMPH,PrecipitationIn, CloudCover, Events, WindDirDegrees
2013-5-1,48,41,33,43,34,30,100,86,71,30.55,30.29,30.04,10,4,0,28,14,36,1.32,8,Fog-Rain-Snow-Thunderstorm,1
2013-5-2,53,44,35,30,27,22,75,54,32,30.65,30.55,30.45,10,10,10,29,17,36,0.00,4,,359
2013-5-3,54,42,29,26,24,17,78,52,26,30.45,30.26,30.11,10,10,10,26,14,36,0.00,0,,354
2013-5-4,43,41,38,39,34,27,93,74,55,30.20,30.13,30.07,10,9,4,28,15,33,0.01,8,Rain,360
2013-5-5,54,46,38,43,41,38,100,83,66,30.22,30.19,30.14,10,10,10,17,10,23,0.02,7,Rain,349
2013-5-6,69,52,35,45,38,33,100,64,27,30.20,30.13,30.04,10,5,0,9,4,14,0.00,2,Fog,302
2013-5-7,69,56,42,54,48,41,93,69,44,30.05,30.01,29.94,10,9,5,16,6,20,0.02,3,Rain,159
2013-5-8,65,58,51,57,55,51,100,89,78,29.96,29.93,29.91,10,6,2,14,5,16,0.44,7,Rain-Thunderstorm,156
2013-5-9,59,54,49,55,54,50,100,93,86,30.07,29.97,29.89,10,5,0,21,10,28,0.18,8,Fog-Rain,1
2013-5-10,70,59,48,50,47,42,100,69,37,30.14,30.08,30.00,10,8,5,14,7,16,0.00,4,,340
2013-5-11,59,47,34,46,31,20,76,50,23,30.30,30.24,30.08,10,10,10,31,14,39,0.00,0,,341
2013-5-12,67,48,29,33,26,20,85,53,20,30.30,30.21,30.08,10,10,10,12,4,20,0.00,0,,148
2013-5-13,90,69,47,52,44,33,80,51,21,30.08,29.92,29.78,10,10,10,29,14,35,0.00,0,,187
2013-5-14,103,78,53,54,47,37,86,49,12,29.79,29.68,29.60,10,10,10,29,11,39,0.00,0,,286
2013-5-15,83,71,58,44,40,35,52,37,22,29.94,29.85,29.77,10,10,10,23,10,28,0.00,0,,77
2013-5-16,84,69,53,61,53,43,78,53,28,29.86,29.81,29.75,10,10,9,29,8,36,0.01,4,Rain-Thunderstorm,124
2013-5-17,91,75,58,59,56,53,93,61,29,29.85,29.79,29.72,10,10,7,20,11,25,0.00,1,,168
2013-5-18,86,74,62,65,62,57,90,71,51,29.86,29.76,29.64,10,10,7,32,11,44,0.08,5,Rain-Thunderstorm,152
2013-5-19,72,64,55,64,59,54,93,80,66,29.69,29.61,29.50,10,8,2,23,8,33,0.59,5,Rain-Thunderstorm,134
2013-5-20,71,63,54,56,53,49,100,74,47,29.62,29.56,29.50,10,9,4,26,13,32,0.01,7,Rain,259
2013-5-21,60,55,49,54,49,45,93,80,66,29.75,29.67,29.60,10,9,2,25,18,33,T,8,Rain,290
2013-5-22,60,55,49,52,48,46,100,84,67,30.03,29.86,29.75,10,9,2,25,15,30,0.06,8,Rain,321
2013-5-23,72,61,50,50,45,39,89,60,31,30.23,30.14,30.03,10,10,10,9,11,14,0.00,4,,40
2013-5-24,76,63,50,52,46,40,71,56,40,30.25,30.14,30.01,10,10,10,29,16,38,0.00,5,,142
2013-5-25,77,68,59,66,60,51,93,76,58,30.03,29.98,29.90,10,9,5,33,15,40,0.24,6,Rain-Thunderstorm,131
2013-5-26,66,60,53,63,58,52,100,94,87,29.98,29.91,29.77,10,5,1,37,12,46,1.07,7,Rain-Thunderstorm,93
2013-5-27,75,67,58,63,59,52,93,79,64,29.94,29.78,29.66,10,9,0,33,10,44,0.18,5,Fog-Rain-Thunderstorm,82
2013-5-28,80,68,56,61,58,54,97,73,49,29.75,29.69,29.62,10,9,4,21,7,28,T,3,Rain,31
2013-5-29,73,67,60,68,63,57,97,85,73,29.68,29.58,29.44,10,8,1,36,15,47,1.17,6,Rain-Thunderstorm,160
2013-5-30,78,68,57,61,56,50,100,70,39,29.59,29.50,29.44,10,9,2,28,15,33,0.00,3,Rain-Thunderstorm,206
2013-5-31,74,66,57,52,46,44,75,57,38,29.65,29.59,29.56,10,10,10,33,18,43,0.00,2,,249